Terminal Aerodrome Forecast
Issued by NWS Blacksburg, VA

Current Version | Previous Version | Text Only | Print | Product List | Glossary Off
Versions: 1 2 3 4 5 6 7 8 9 10 11 12 13 14 15 16 17 18 19 20 21 22 23 24 25 26 27 28 29 30 31 32 33 34 35 36 37 38 39 40 41 42 43 44 45 46 47 48 49 50

000
FTUS41 KRNK 261734
TAFBLF
TAF
KBLF 261734Z 2618/2718 24014G25KT P6SM SCT025 BKN050
     FM262100 26010G22KT 6SM -SHRA OVC035
     FM262200 28014G28KT 3SM -TSRA SCT015 OVC030CB
     FM270100 31010G18KT 4SM -SHRA OVC015
     FM270600 33009KT 2SM -RA BR OVC005
     FM270900 32008KT 3SM -SHSN BR SCT005 BKN015
     FM271500 31006KT P6SM OVC015=

USA.gov is the U.S. government's official web portal to all federal, state and local government web resources and services.